Time;durP1;ratioP1;P1;durP2;ratioP2;P2;SDS_P1;SDS_P2;PMS_P1;PMS_P2;Temp;Humidity;BMP_temperature;BMP_pressure;BME280_temperature;BME280_humidity;BME280_pressure;Samples;Min_cycle;Max_cycle;Signal;HPM_P1;HPM_P2
2023/05/09 00:00:14;;;;;;;4.35;1.90;;;;;;;11.22;42.50;100825.02;1802409;79;21212;-79
2023/05/09 00:03:13;;;;;;;3.20;1.60;;;;;;;11.15;42.49;100833.58;1802678;79;21217;-79
2023/05/09 00:06:18;;;;;;;6.62;1.80;;;;;;;11.19;42.53;100825.86;1802665;79;21157;-79
2023/05/09 00:09:23;;;;;;;7.03;1.70;;;;;;;11.10;42.88;100831.82;1802671;79;21161;-79
2023/05/09 00:12:29;;;;;;;3.08;1.67;;;;;;;11.19;42.71;100829.96;1802754;79;21181;-79
2023/05/09 00:15:35;;;;;;;3.52;1.60;;;;;;;11.22;42.56;100827.75;1802011;79;21201;-79
2023/05/09 00:18:36;;;;;;;5.65;2.08;;;;;;;11.17;42.67;100831.51;1802665;79;21177;-79
2023/05/09 00:21:29;;;;;;;2.50;1.45;;;;;;;11.19;42.76;100836.29;1802967;79;21169;-79
2023/05/09 00:24:14;;;;;;;2.25;1.67;;;;;;;11.19;42.84;100832.70;1801873;79;21886;-79
2023/05/09 00:27:07;;;;;;;1.95;1.45;;;;;;;11.18;42.85;100830.99;1802705;79;21224;-79
2023/05/09 00:30:28;;;;;;;7.00;1.90;;;;;;;11.07;43.13;100833.54;1801210;79;21196;-79
2023/05/09 00:33:34;;;;;;;8.88;2.22;;;;;;;11.06;43.13;100844.67;1802581;79;21711;-79
2023/05/09 00:36:41;;;;;;;5.78;2.62;;;;;;;11.06;43.13;100837.83;1802660;79;21165;-79
2023/05/09 00:39:46;;;;;;;4.45;1.80;;;;;;;11.08;43.08;100828.92;1802789;79;21204;-79
2023/05/09 00:42:52;;;;;;;10.32;1.70;;;;;;;11.10;43.16;100836.44;1802660;79;21189;-79
2023/05/09 00:45:58;;;;;;;3.77;1.77;;;;;;;11.05;43.22;100835.57;1802146;79;21366;-79
2023/05/09 00:49:04;;;;;;;2.27;1.90;;;;;;;11.22;42.90;100833.75;1801331;79;21217;-78
2023/05/09 00:52:10;;;;;;;8.10;2.30;;;;;;;11.09;43.00;100832.00;1801150;79;21173;-78
2023/05/09 00:55:15;;;;;;;4.22;1.70;;;;;;;11.03;43.26;100825.31;1801235;79;21228;-80
2023/05/09 00:58:21;;;;;;;3.85;1.70;;;;;;;11.02;43.09;100835.92;1802673;79;21216;-81
2023/05/09 01:01:26;;;;;;;7.60;2.10;;;;;;;11.02;43.09;100841.40;1781702;79;21224;-80
2023/05/09 01:04:34;;;;;;;5.00;2.35;;;;;;;11.12;43.00;100842.11;1802124;79;21205;-81
2023/05/09 01:07:57;;;;;;;5.62;1.92;;;;;;;11.12;43.07;100839.89;1802697;79;21165;-78
2023/05/09 01:11:13;;;;;;;2.10;1.57;;;;;;;11.11;43.30;100836.81;1802670;79;21157;-78
2023/05/09 01:14:41;;;;;;;8.95;2.17;;;;;;;11.14;43.33;100841.93;1802465;79;21236;-77
2023/05/09 01:18:07;;;;;;;3.55;2.00;;;;;;;11.06;43.53;100836.45;1802583;79;21181;-78
2023/05/09 01:21:16;;;;;;;10.55;1.62;;;;;;;10.99;43.88;100846.68;1802636;79;21161;-78
2023/05/09 01:25:04;;;;;;;3.35;1.80;;;;;;;11.21;43.65;100851.20;1802506;79;21217;-78
2023/05/09 01:28:30;;;;;;;5.42;2.08;;;;;;;11.21;43.58;100844.36;1802692;79;21237;-78
2023/05/09 01:31:35;;;;;;;3.42;1.70;;;;;;;11.15;43.71;100843.16;1802070;79;21209;-78
2023/05/09 01:34:42;;;;;;;3.02;1.52;;;;;;;11.10;43.78;100839.17;1801116;79;21193;-78
2023/05/09 01:37:50;;;;;;;3.25;1.60;;;;;;;11.10;44.03;100840.03;1801318;79;21929;-78
2023/05/09 01:40:58;;;;;;;9.45;2.72;;;;;;;11.08;43.99;100844.83;1801398;79;21177;-78
2023/05/09 01:44:04;;;;;;;1.80;1.50;;;;;;;11.13;44.11;100849.30;1801206;79;21193;-78
2023/05/09 01:47:10;;;;;;;2.87;2.08;;;;;;;11.18;43.90;100850.16;1801889;79;21255;-78
2023/05/09 01:50:18;;;;;;;4.30;1.90;;;;;;;11.03;44.25;100849.09;1800318;79;21263;-78
2023/05/09 01:53:22;;;;;;;4.20;2.27;;;;;;;11.04;44.22;100846.19;1802054;79;21786;-78
2023/05/09 01:56:28;;;;;;;2.55;1.67;;;;;;;11.10;44.05;100851.50;1799738;79;21802;-77
2023/05/09 01:59:27;;;;;;;9.80;1.80;;;;;;;11.14;44.02;100844.67;1800758;78;21218;-78
2023/05/09 02:02:20;;;;;;;6.15;2.08;;;;;;;11.17;44.12;100842.98;1801754;79;21251;-78
2023/05/09 02:05:10;;;;;;;5.45;2.08;;;;;;;11.06;44.28;100842.78;1800799;79;21276;-78
2023/05/09 02:08:03;;;;;;;6.40;2.10;;;;;;;10.90;44.67;100849.05;1802703;79;21185;-78
2023/05/09 02:10:50;;;;;;;7.42;2.08;;;;;;;10.86;44.95;100854.49;1802703;79;21158;-78
2023/05/09 02:13:42;;;;;;;4.87;2.15;;;;;;;10.91;44.88;100855.37;1802633;79;21178;-78
2023/05/09 02:16:28;;;;;;;3.30;1.67;;;;;;;10.96;44.90;100848.88;1801459;79;21181;-77
2023/05/09 02:19:22;;;;;;;6.87;1.80;;;;;;;10.85;45.15;100848.69;1800997;79;21168;-78
2023/05/09 02:22:09;;;;;;;5.15;2.40;;;;;;;10.91;45.26;100855.37;1802591;79;21188;-78
2023/05/09 02:25:03;;;;;;;10.08;1.75;;;;;;;10.85;45.28;100852.78;1802585;79;21295;-80
2023/05/09 02:28:09;;;;;;;4.00;1.92;;;;;;;10.86;45.31;100849.53;1802864;79;21252;-80
2023/05/09 02:31:15;;;;;;;6.75;2.33;;;;;;;10.84;45.59;100852.45;1802957;79;21177;-80
2023/05/09 02:34:21;;;;;;;3.20;1.57;;;;;;;10.91;45.62;100853.48;1802739;79;21177;-80
2023/05/09 02:37:27;;;;;;;10.65;2.17;;;;;;;10.87;45.99;100849.88;1802716;79;21150;-80
2023/05/09 02:40:34;;;;;;;9.45;2.10;;;;;;;10.83;46.17;100853.48;1802777;79;21731;-80
2023/05/09 02:43:41;;;;;;;3.42;1.65;;;;;;;10.81;46.28;100859.61;1801285;79;21502;-80
2023/05/09 02:46:47;;;;;;;4.80;1.95;;;;;;;10.73;46.50;100855.49;1801207;79;21212;-80
2023/05/09 02:49:53;;;;;;;7.55;1.95;;;;;;;10.65;46.86;100844.50;1800053;79;21185;-80
2023/05/09 02:52:58;;;;;;;4.92;1.62;;;;;;;10.65;46.63;100854.08;1802899;79;21171;-80
2023/05/09 02:56:05;;;;;;;4.58;2.10;;;;;;;10.71;46.68;100857.52;1802274;79;21189;-79
2023/05/09 02:59:11;;;;;;;4.87;1.87;;;;;;;10.84;46.50;100862.03;1802689;78;21173;-80
2023/05/09 03:02:16;;;;;;;3.80;1.65;;;;;;;10.63;47.02;100869.78;1802595;79;21173;-81
2023/05/09 03:05:21;;;;;;;5.85;1.87;;;;;;;10.68;46.91;100869.66;1802656;79;21181;-80
2023/05/09 03:08:27;;;;;;;2.83;1.72;;;;;;;10.74;46.92;100862.67;1802716;79;21708;-80
2023/05/09 03:11:35;;;;;;;5.72;1.72;;;;;;;10.71;46.91;100868.45;1802719;79;21181;-80
2023/05/09 03:14:41;;;;;;;4.25;1.95;;;;;;;10.78;47.10;100869.53;1802806;79;22412;-79
2023/05/09 03:17:47;;;;;;;4.20;1.70;;;;;;;10.81;47.25;100871.92;1801259;79;21260;-78
2023/05/09 03:20:53;;;;;;;5.78;2.10;;;;;;;10.84;47.32;100875.71;1802720;79;21767;-78
2023/05/09 03:23:59;;;;;;;6.35;1.60;;;;;;;10.87;47.30;100881.34;1802611;79;21216;-78
2023/05/09 03:27:05;;;;;;;7.00;1.85;;;;;;;10.72;47.56;100881.11;1801789;79;21197;-79
2023/05/09 03:30:12;;;;;;;9.98;2.02;;;;;;;10.80;47.49;100886.63;1802677;79;21161;-79
2023/05/09 03:33:18;;;;;;;7.67;1.67;;;;;;;10.85;47.38;100888.36;1801475;79;21251;-79
2023/05/09 03:36:24;;;;;;;3.85;1.70;;;;;;;10.85;47.35;100889.73;1802499;79;21180;-78
2023/05/09 03:39:30;;;;;;;8.25;1.85;;;;;;;10.97;46.99;100901.27;1802682;79;21192;-78
2023/05/09 03:42:35;;;;;;;6.58;2.10;;;;;;;11.07;46.63;100897.87;1802727;79;21212;-78
2023/05/09 03:45:28;;;;;;;5.37;1.80;;;;;;;11.10;46.56;100899.41;1803031;79;21724;-79
2023/05/09 03:48:35;;;;;;;7.85;1.98;;;;;;;11.12;46.73;100904.23;1802518;79;21213;-79
2023/05/09 03:51:40;;;;;;;9.65;1.90;;;;;;;11.33;46.48;100898.28;1804071;79;21211;-79
2023/05/09 03:54:46;;;;;;;4.40;2.00;;;;;;;11.40;46.06;100907.05;1811420;79;21287;-79
2023/05/09 03:57:54;;;;;;;4.33;2.30;;;;;;;11.39;46.03;100905.34;1810273;79;21181;-79
2023/05/09 04:01:00;;;;;;;8.88;1.95;;;;;;;11.34;46.69;100907.73;1809725;79;21327;-78
2023/05/09 04:04:06;;;;;;;10.72;2.20;;;;;;;11.45;46.17;100912.88;1810775;79;21196;-78
2023/05/09 04:07:12;;;;;;;4.22;1.40;;;;;;;11.65;46.09;100913.95;1810725;79;21209;-78
2023/05/09 04:10:18;;;;;;;3.75;1.85;;;;;;;11.62;46.06;100917.02;1811177;79;21216;-78
2023/05/09 04:13:27;;;;;;;8.23;1.75;;;;;;;11.69;46.18;100920.29;1811096;79;21529;-78
2023/05/09 04:16:35;;;;;;;6.83;1.65;;;;;;;11.83;46.16;100920.17;1809575;79;21200;-78
2023/05/09 04:19:40;;;;;;;1.92;1.57;;;;;;;11.97;46.57;100922.24;1810362;79;21207;-78
2023/05/09 04:22:47;;;;;;;2.83;1.42;;;;;;;12.11;46.32;100919.85;1811119;79;21177;-78
2023/05/09 04:25:55;;;;;;;2.95;1.70;;;;;;;12.11;46.67;100922.59;1811079;79;21231;-78
2023/05/09 04:29:01;;;;;;;3.10;1.87;;;;;;;12.15;46.82;100925.34;1811114;79;21798;-78
2023/05/09 04:32:08;;;;;;;9.73;1.85;;;;;;;12.09;47.04;100926.00;1811175;79;21177;-78
2023/05/09 04:35:15;;;;;;;5.47;2.10;;;;;;;12.32;47.05;100924.28;1810302;79;21192;-78
2023/05/09 04:38:20;;;;;;;7.17;2.10;;;;;;;12.31;47.60;100930.80;1810288;79;21161;-78
2023/05/09 04:41:28;;;;;;;4.00;1.65;;;;;;;12.32;47.49;100920.16;1811134;79;21176;-78
2023/05/09 04:44:35;;;;;;;3.25;1.65;;;;;;;12.31;47.56;100925.31;1811137;79;21181;-78
2023/05/09 04:47:39;;;;;;;2.85;1.82;;;;;;;12.31;47.92;100922.58;1810575;79;21220;-78
2023/05/09 04:50:47;;;;;;;7.60;1.60;;;;;;;12.42;48.42;100929.09;1809957;79;21251;-78
2023/05/09 04:53:53;;;;;;;9.30;2.30;;;;;;;12.46;48.73;100931.81;1764317;80;21221;-78
2023/05/09 04:57:00;;;;;;;9.08;2.10;;;;;;;12.46;49.27;100927.69;1779227;80;21221;-78
2023/05/09 05:00:10;;;;;;;6.87;3.65;;;;;;;12.58;48.87;100933.69;1790271;80;21180;-78
2023/05/09 05:03:16;;;;;;;8.90;5.95;;;;;;;12.60;49.64;100933.50;1778953;80;21181;-78
2023/05/09 05:06:23;;;;;;;3.17;2.05;;;;;;;12.74;49.12;100936.91;1759166;80;21213;-78
2023/05/09 05:09:29;;;;;;;7.05;2.00;;;;;;;12.94;49.18;100934.12;1774439;80;21185;-78
2023/05/09 05:12:36;;;;;;;2.27;1.75;;;;;;;13.17;49.65;100934.70;1759481;80;21783;-78
2023/05/09 05:15:43;;;;;;;6.40;1.60;;;;;;;13.24;50.02;100937.12;1777505;80;21760;-79
2023/05/09 05:18:49;;;;;;;4.95;1.77;;;;;;;13.57;49.55;100942.45;1762789;79;21204;-78
2023/05/09 05:21:58;;;;;;;9.20;1.83;;;;;;;13.78;49.82;100944.03;1776278;79;21160;-79
2023/05/09 05:24:57;;;;;;;6.45;1.65;;;;;;;13.81;49.31;100936.80;1756744;79;21182;-79
2023/05/09 05:28:03;;;;;;;5.72;1.40;;;;;;;13.78;48.98;100934.41;1771295;79;21208;-78
2023/05/09 05:31:09;;;;;;;6.58;1.80;;;;;;;13.84;49.78;100932.33;1773634;79;21181;-78
2023/05/09 05:34:15;;;;;;;7.47;1.92;;;;;;;13.95;49.63;100936.01;1764132;80;21279;-78
2023/05/09 05:37:24;;;;;;;12.65;1.82;;;;;;;14.10;49.88;100927.81;1759327;80;21189;-79
2023/05/09 05:40:30;;;;;;;5.90;1.37;;;;;;;14.32;50.22;100933.82;1760005;79;21226;-78
2023/05/09 05:43:37;;;;;;;3.47;1.90;;;;;;;14.49;48.31;100935.06;1764812;80;22428;-79
2023/05/09 05:46:43;;;;;;;3.10;1.75;;;;;;;14.50;47.82;100928.54;1771009;80;21181;-79
2023/05/09 05:49:51;;;;;;;11.78;1.92;;;;;;;14.57;48.82;100931.71;1779055;79;21736;-79
2023/05/09 05:52:57;;;;;;;5.92;2.08;;;;;;;14.69;48.86;100933.50;1761271;79;21236;-79
2023/05/09 05:56:03;;;;;;;7.75;1.80;;;;;;;14.87;49.06;100942.78;1797751;79;21228;-79
2023/05/09 05:59:09;;;;;;;3.52;1.87;;;;;;;14.95;48.48;100939.91;1802536;79;21562;-79
2023/05/09 06:02:16;;;;;;;7.10;1.70;;;;;;;15.03;47.29;100941.20;1804803;77;21168;-79
2023/05/09 06:05:22;;;;;;;7.20;1.87;;;;;;;14.99;47.53;100945.37;1801078;78;21375;-79
2023/05/09 06:08:28;;;;;;;7.22;1.70;;;;;;;15.04;46.56;100947.04;1807991;79;21189;-79
2023/05/09 06:11:34;;;;;;;2.85;1.70;;;;;;;14.83;46.93;100944.20;1799768;78;21712;-79
2023/05/09 06:14:40;;;;;;;5.95;1.85;;;;;;;14.90;46.84;100943.77;1799566;79;21717;-79
2023/05/09 06:17:40;;;;;;;4.83;1.90;;;;;;;15.06;47.46;100941.36;1798201;79;21185;-79
2023/05/09 06:20:35;;;;;;;7.85;1.90;;;;;;;15.26;46.78;100941.63;1796867;79;21885;-78
2023/05/09 06:23:39;;;;;;;8.78;1.87;;;;;;;15.30;46.22;100947.09;1732556;82;21502;-79
2023/05/09 06:26:46;;;;;;;8.38;2.15;;;;;;;15.29;46.71;100946.73;1794858;79;21248;-79
2023/05/09 06:29:52;;;;;;;5.55;1.95;;;;;;;15.38;46.67;100945.59;1798491;79;21181;-79
2023/05/09 06:32:59;;;;;;;6.58;2.15;;;;;;;15.51;46.24;100944.91;1791760;79;21231;-79
2023/05/09 06:36:06;;;;;;;5.80;1.70;;;;;;;15.52;46.08;100946.08;1811414;79;21200;-78
2023/05/09 06:39:11;;;;;;;5.15;1.70;;;;;;;15.60;46.02;100945.13;1801405;79;21184;-79
2023/05/09 06:42:18;;;;;;;7.45;2.10;;;;;;;15.64;45.93;100946.48;1806312;79;21189;-79
2023/05/09 06:45:24;;;;;;;4.42;2.08;;;;;;;15.91;45.25;100947.64;1798496;79;21177;-79
2023/05/09 06:48:23;;;;;;;10.90;2.17;;;;;;;15.96;45.33;100942.39;1802815;79;21164;-79
2023/05/09 06:51:15;;;;;;;5.22;1.60;;;;;;;16.17;44.69;100947.58;1796136;79;21216;-79
2023/05/09 06:54:21;;;;;;;5.92;1.80;;;;;;;16.26;44.66;100939.48;1761599;81;21208;-79
2023/05/09 06:57:27;;;;;;;7.62;2.08;;;;;;;16.17;43.88;100947.58;1734067;82;21233;-79
2023/05/09 07:00:32;;;;;;;4.28;2.30;;;;;;;16.08;44.28;100944.09;1758395;79;21560;-79
2023/05/09 07:03:31;;;;;;;4.87;1.67;;;;;;;15.95;44.46;100947.59;1764696;81;21187;-79
2023/05/09 07:06:36;;;;;;;5.20;1.80;;;;;;;16.17;44.98;100940.67;1725115;83;21920;-79
2023/05/09 07:09:42;;;;;;;4.28;1.87;;;;;;;16.37;44.84;100943.08;1752437;81;21228;-78
2023/05/09 07:12:50;;;;;;;12.28;2.47;;;;;;;16.61;43.64;100940.44;1763661;81;21489;-78
2023/05/09 07:15:56;;;;;;;10.98;2.33;;;;;;;16.65;43.64;100936.20;1734108;82;21244;-79
2023/05/09 07:19:04;;;;;;;8.28;2.08;;;;;;;16.91;43.33;100932.81;1720249;82;21240;-79
2023/05/09 07:22:12;;;;;;;10.90;2.20;;;;;;;16.99;43.62;100929.90;1746883;81;21834;-78
2023/05/09 07:25:18;;;;;;;6.75;1.67;;;;;;;17.00;43.00;100937.12;1729917;81;21208;-79
2023/05/09 07:28:24;;;;;;;11.10;1.98;;;;;;;16.79;42.96;100933.89;1720511;82;21244;-79
2023/05/09 07:31:30;;;;;;;13.55;2.15;;;;;;;16.86;42.77;100925.66;1731106;80;21173;-79
2023/05/09 07:34:35;;;;;;;7.30;1.90;;;;;;;16.90;42.81;100921.45;1745313;81;21189;-80
2023/05/09 07:37:41;;;;;;;5.83;1.90;;;;;;;17.24;43.05;100925.24;1732242;82;21228;-79
2023/05/09 07:40:48;;;;;;;7.15;1.85;;;;;;;16.87;43.25;100919.08;1754843;80;21179;-78
2023/05/09 07:43:54;;;;;;;6.42;1.70;;;;;;;17.01;42.81;100913.95;1759691;80;21253;-79
2023/05/09 07:47:01;;;;;;;12.45;2.27;;;;;;;17.33;42.38;100909.66;1729109;82;21196;-79
2023/05/09 07:50:08;;;;;;;6.92;2.20;;;;;;;17.30;41.79;100910.59;1763727;80;21237;-79
2023/05/09 07:53:14;;;;;;;6.83;1.90;;;;;;;17.42;40.95;100908.09;1756782;81;21209;-79
2023/05/09 07:56:20;;;;;;;12.05;2.15;;;;;;;17.25;40.70;100893.77;1737961;81;21281;-79
2023/05/09 07:59:25;;;;;;;7.53;1.92;;;;;;;17.46;40.05;100904.71;1731328;81;21299;-79
2023/05/09 08:02:30;;;;;;;5.00;2.05;;;;;;;17.32;39.58;100896.89;1744739;81;21201;-79
2023/05/09 08:05:37;;;;;;;9.55;1.70;;;;;;;17.22;38.78;100899.70;1744188;81;21212;-79
2023/05/09 08:08:44;;;;;;;6.15;2.22;;;;;;;17.31;39.34;100892.93;1726734;82;21346;-80
2023/05/09 08:11:50;;;;;;;6.40;1.75;;;;;;;17.24;38.91;100893.45;1802109;79;22308;-79
2023/05/09 08:14:56;;;;;;;6.55;2.00;;;;;;;17.39;38.09;100888.61;1792904;79;21157;-79
2023/05/09 08:18:03;;;;;;;3.90;1.60;;;;;;;17.26;37.59;100892.70;1779236;79;21169;-79
2023/05/09 08:21:08;;;;;;;10.55;2.10;;;;;;;17.66;36.62;100885.94;1793685;79;21186;-79
2023/05/09 08:24:17;;;;;;;8.50;2.08;;;;;;;17.87;35.77;100884.41;1778417;79;21244;-79
2023/05/09 08:27:24;;;;;;;7.08;1.52;;;;;;;17.79;36.13;100872.18;1768733;81;21256;-80
2023/05/09 08:30:30;;;;;;;12.98;2.20;;;;;;;17.94;36.88;100874.75;1791985;79;21287;-79
2023/05/09 08:33:35;;;;;;;3.35;1.52;;;;;;;18.05;36.60;100871.34;1784972;79;21196;-78
2023/05/09 08:36:40;;;;;;;9.33;1.40;;;;;;;18.01;36.23;100867.29;1791583;79;21170;-79
2023/05/09 08:39:47;;;;;;;6.87;1.57;;;;;;;17.85;35.21;100865.26;1786090;79;21220;-79
2023/05/09 08:42:53;;;;;;;7.05;2.40;;;;;;;17.59;34.58;100866.55;1782163;79;21227;-80
2023/05/09 08:46:01;;;;;;;10.75;1.60;;;;;;;17.34;35.01;100875.94;1789841;79;22206;-80
2023/05/09 08:49:08;;;;;;;6.10;1.65;;;;;;;16.84;35.92;100871.12;1786636;78;21169;-80
2023/05/09 08:52:14;;;;;;;3.05;1.35;;;;;;;16.87;36.13;100881.77;1790535;78;22156;-80
2023/05/09 08:55:12;;;;;;;4.10;1.70;;;;;;;16.62;36.95;100870.34;1780437;79;21198;-80
2023/05/09 08:58:18;;;;;;;9.53;1.80;;;;;;;16.30;37.70;100876.78;1795261;79;21210;-80
2023/05/09 09:01:28;;;;;;;8.53;1.77;;;;;;;16.57;37.50;100881.14;1796941;79;21198;-79
2023/05/09 09:04:33;;;;;;;5.70;1.70;;;;;;;14.80;40.16;100881.23;1795766;79;21178;-79
2023/05/09 09:07:43;;;;;;;6.42;2.02;;;;;;;14.88;39.71;100881.14;1797881;79;21205;-79
2023/05/09 09:10:49;;;;;;;3.40;2.00;;;;;;;15.49;39.67;100880.32;1775052;79;21218;-79
2023/05/09 09:13:54;;;;;;;3.35;2.00;;;;;;;15.58;40.14;100882.44;1797755;78;21222;-79
2023/05/09 09:17:01;;;;;;;5.55;2.10;;;;;;;15.23;40.66;100892.39;1764783;80;21331;-79
2023/05/09 09:20:09;;;;;;;6.37;1.90;;;;;;;15.08;40.61;100885.01;1758384;80;21604;-78
2023/05/09 09:23:16;;;;;;;6.42;2.08;;;;;;;14.59;40.36;100874.27;1751909;81;21178;-79
2023/05/09 09:26:21;;;;;;;3.95;1.80;;;;;;;14.31;41.51;100873.48;1759348;80;21240;-79
2023/05/09 09:29:27;;;;;;;13.80;2.70;;;;;;;14.25;41.75;100875.58;1731629;81;21188;-79
2023/05/09 09:32:41;;;;;;;5.42;2.10;;;;;;;14.41;41.36;100867.70;1743740;82;21208;-79
2023/05/09 09:35:48;;;;;;;4.33;2.00;;;;;;;14.57;40.41;100870.30;1735197;81;21193;-78
2023/05/09 09:38:53;;;;;;;16.45;3.42;;;;;;;14.76;40.42;100866.98;1754473;80;21190;-78
2023/05/09 09:42:00;;;;;;;10.58;1.62;;;;;;;15.00;39.72;100869.95;1744220;81;21551;-78
2023/05/09 09:45:15;;;;;;;6.47;2.00;;;;;;;15.17;40.16;100865.62;1745216;81;21188;-78
2023/05/09 09:48:15;;;;;;;7.33;1.87;;;;;;;15.44;38.29;100862.66;1768477;80;21248;-78
2023/05/09 09:51:17;;;;;;;3.58;1.87;;;;;;;15.59;36.61;100865.69;1762241;80;21263;-79
2023/05/09 09:54:22;;;;;;;2.40;1.42;;;;;;;15.04;36.92;100857.50;1766668;80;21240;-79
2023/05/09 09:57:47;;;;;;;4.22;1.50;;;;;;;15.23;36.15;100856.57;1770281;80;21755;-79
2023/05/09 10:00:52;;;;;;;10.18;1.70;;;;;;;15.15;35.66;100854.80;1799688;79;21252;-79
2023/05/09 10:03:57;;;;;;;5.92;1.50;;;;;;;15.11;35.95;100871.38;1784360;79;21199;-79
2023/05/09 10:07:06;;;;;;;7.28;1.57;;;;;;;15.15;35.17;100856.67;1789576;79;21193;-80
2023/05/09 10:10:13;;;;;;;5.35;1.72;;;;;;;15.31;35.39;100853.19;1795068;78;21197;-79
2023/05/09 10:13:19;;;;;;;13.58;2.10;;;;;;;15.34;35.45;100862.98;1790446;79;21883;-79
2023/05/09 10:16:25;;;;;;;26.55;2.65;;;;;;;15.34;35.35;100858.84;1785209;79;21197;-79
2023/05/09 10:19:32;;;;;;;7.97;1.70;;;;;;;15.35;35.46;100863.30;1787174;79;21197;-79
2023/05/09 10:22:43;;;;;;;3.75;1.30;;;;;;;15.26;36.34;100854.82;1780157;79;21234;-79
2023/05/09 10:25:55;;;;;;;2.65;1.37;;;;;;;15.50;35.00;100854.45;1786453;79;21776;-79
2023/05/09 10:29:02;;;;;;;3.12;0.90;;;;;;;15.61;34.50;100859.97;1785454;79;21205;-79
2023/05/09 10:32:12;;;;;;;2.15;1.15;;;;;;;15.73;33.00;100864.48;1788317;79;21201;-79
2023/05/09 10:35:18;;;;;;;2.55;1.27;;;;;;;15.78;32.51;100852.34;1783591;78;21252;-80
2023/05/09 10:38:37;;;;;;;4.80;1.20;;;;;;;15.94;32.51;100858.10;1781911;79;21514;-79
2023/05/09 10:41:44;;;;;;;3.65;1.27;;;;;;;16.04;31.93;100855.36;1761269;81;22101;-79
2023/05/09 10:44:50;;;;;;;1.60;1.07;;;;;;;16.02;31.76;100853.30;1734128;81;21187;-79
2023/05/09 10:47:57;;;;;;;3.62;1.32;;;;;;;16.09;32.20;100858.37;1750840;80;21791;-79
2023/05/09 10:51:04;;;;;;;9.88;1.42;;;;;;;16.00;32.60;100865.61;1758844;80;21325;-80
2023/05/09 10:54:03;;;;;;;4.22;1.30;;;;;;;16.12;32.33;100852.11;1756919;81;21195;-80
2023/05/09 10:57:09;;;;;;;2.27;1.30;;;;;;;16.13;32.99;100868.98;1756780;80;21184;-80
2023/05/09 11:00:15;;;;;;;4.20;1.45;;;;;;;16.15;32.04;100864.14;1758430;81;21191;-80
2023/05/09 11:03:20;;;;;;;3.47;1.50;;;;;;;16.39;32.51;100876.12;1756885;80;21159;-80
2023/05/09 11:06:51;;;;;;;4.97;1.35;;;;;;;16.41;31.80;100885.03;1758664;81;21187;-80
2023/05/09 11:10:16;;;;;;;3.45;1.70;;;;;;;16.46;33.35;100859.05;1728466;81;21853;-80
2023/05/09 11:13:23;;;;;;;2.58;1.42;;;;;;;16.39;32.06;100880.26;1757721;81;21231;-80
2023/05/09 11:16:29;;;;;;;7.37;1.57;;;;;;;16.60;31.93;100878.80;1734014;81;21207;-80
2023/05/09 11:19:45;;;;;;;4.60;1.62;;;;;;;16.36;32.13;100862.17;1759062;81;21203;-79
2023/05/09 11:22:51;;;;;;;2.77;1.35;;;;;;;16.36;32.63;100857.18;1740160;81;21912;-79
2023/05/09 11:25:56;;;;;;;7.15;1.40;;;;;;;16.10;32.50;100864.20;1728177;83;21505;-79
2023/05/09 11:29:02;;;;;;;9.38;1.82;;;;;;;16.41;32.72;100869.85;1729848;83;21262;-79
2023/05/09 11:32:14;;;;;;;5.25;1.50;;;;;;;16.29;31.61;100865.95;1730665;83;21239;-78
2023/05/09 11:35:26;;;;;;;5.65;1.70;;;;;;;16.13;33.07;100878.64;1756334;81;21524;-78
2023/05/09 11:38:32;;;;;;;6.30;1.52;;;;;;;16.04;32.80;100865.02;1727690;83;21770;-78
2023/05/09 11:41:38;;;;;;;4.42;1.47;;;;;;;16.02;32.87;100862.11;1688622;82;21269;-79
2023/05/09 11:44:47;;;;;;;6.75;1.60;;;;;;;15.81;32.54;100875.40;1763281;80;21208;-79
2023/05/09 11:47:56;;;;;;;5.37;1.55;;;;;;;15.46;33.18;100866.92;1746825;80;21197;-79
2023/05/09 11:51:03;;;;;;;2.92;1.50;;;;;;;15.44;33.41;100860.76;1721882;82;21256;-79
2023/05/09 11:54:13;;;;;;;7.78;1.60;;;;;;;15.56;34.24;100856.42;1740548;81;21271;-79
2023/05/09 11:57:18;;;;;;;5.95;1.47;;;;;;;15.61;33.45;100866.86;1743425;82;21723;-79
2023/05/09 12:00:25;;;;;;;8.43;1.37;;;;;;;15.55;33.14;100858.86;1750666;81;21232;-79
2023/05/09 12:03:30;;;;;;;4.80;1.65;;;;;;;15.29;33.26;100868.19;1761847;80;21228;-79
2023/05/09 12:06:36;;;;;;;2.02;1.32;;;;;;;15.22;33.48;100860.38;1712625;82;21240;-79
2023/05/09 12:09:42;;;;;;;5.03;1.60;;;;;;;15.14;33.88;100848.94;1759005;80;22016;-79
2023/05/09 12:12:55;;;;;;;2.20;1.40;;;;;;;15.10;34.15;100855.88;1746707;81;21176;-79
2023/05/09 12:16:06;;;;;;;12.88;2.60;;;;;;;14.93;34.19;100851.13;1752111;80;21501;-79
2023/05/09 12:19:14;;;;;;;15.43;1.95;;;;;;;15.07;34.05;100845.27;1741172;80;21192;-79
2023/05/09 12:22:20;;;;;;;4.95;1.35;;;;;;;15.05;33.62;100848.19;1697524;82;21866;-78
2023/05/09 12:25:28;;;;;;;5.50;1.70;;;;;;;14.86;34.23;100838.30;1744839;81;21188;-79
2023/05/09 12:28:30;;;;;;;5.55;1.32;;;;;;;14.92;33.78;100843.06;1720707;80;21200;-78
2023/05/09 12:31:36;;;;;;;3.52;1.60;;;;;;;14.95;33.57;100839.90;1760925;81;21200;-79
2023/05/09 12:34:47;;;;;;;7.67;1.92;;;;;;;14.89;33.67;100842.91;1727432;80;21220;-78
2023/05/09 12:38:04;;;;;;;4.37;1.40;;;;;;;14.81;33.56;100840.25;1731163;81;21181;-78
2023/05/09 12:41:13;;;;;;;2.95;1.50;;;;;;;14.76;33.97;100830.33;1740316;82;21244;-78
2023/05/09 12:44:31;;;;;;;3.08;1.52;;;;;;;14.85;33.77;100839.34;1741050;82;21209;-78
2023/05/09 12:47:41;;;;;;;3.72;1.40;;;;;;;14.89;33.31;100830.52;1742688;81;21176;-78
2023/05/09 12:50:44;;;;;;;4.45;1.67;;;;;;;14.75;33.06;100834.13;1718508;80;21203;-78
2023/05/09 12:53:47;;;;;;;8.08;1.37;;;;;;;14.10;34.68;100829.31;1740362;82;21193;-78
2023/05/09 12:56:54;;;;;;;5.03;1.07;;;;;;;14.14;35.27;100826.00;1745832;82;22474;-78
2023/05/09 13:00:03;;;;;;;5.50;1.47;;;;;;;14.18;35.06;100823.73;1683942;83;21232;-78
2023/05/09 13:03:09;;;;;;;2.17;1.37;;;;;;;14.03;34.65;100819.59;1719803;82;21950;-78
2023/05/09 13:06:20;;;;;;;3.50;1.67;;;;;;;13.98;35.11;100814.64;1705332;83;21284;-79
2023/05/09 13:09:19;;;;;;;6.08;1.60;;;;;;;14.06;34.83;100818.67;1692203;83;21521;-78
2023/05/09 13:12:12;;;;;;;5.20;1.30;;;;;;;13.96;34.32;100811.20;1747011;82;21212;-78
2023/05/09 13:15:20;;;;;;;6.00;1.60;;;;;;;13.84;34.50;100819.59;1747706;82;21281;-78
2023/05/09 13:18:26;;;;;;;2.30;1.25;;;;;;;13.89;34.31;100811.63;1747899;82;21261;-79
2023/05/09 13:21:31;;;;;;;3.17;1.35;;;;;;;13.73;34.59;100807.63;1746853;82;21202;-80
2023/05/09 13:24:38;;;;;;;5.17;1.62;;;;;;;13.89;34.88;100809.41;1747939;82;21186;-79
2023/05/09 13:27:44;;;;;;;4.22;1.25;;;;;;;14.26;34.89;100810.75;1748283;82;21804;-79
2023/05/09 13:30:50;;;;;;;3.75;1.92;;;;;;;14.28;35.20;100809.17;1747992;82;21214;-80
2023/05/09 13:33:56;;;;;;;7.40;1.35;;;;;;;14.50;34.23;100808.28;1748347;82;21871;-80
2023/05/09 13:37:02;;;;;;;3.85;1.87;;;;;;;14.27;33.98;100812.98;1748742;82;21221;-80
2023/05/09 13:40:08;;;;;;;7.35;2.05;;;;;;;14.42;33.88;100808.33;1748504;82;21182;-80
2023/05/09 13:43:14;;;;;;;1.40;1.15;;;;;;;14.44;33.75;100806.75;1743712;82;21222;-80
2023/05/09 13:46:20;;;;;;;6.47;1.95;;;;;;;14.40;33.63;100804.93;1740509;82;21328;-80
2023/05/09 13:49:27;;;;;;;17.42;1.90;;;;;;;14.54;33.98;100806.01;1740322;82;21217;-80
2023/05/09 13:52:32;;;;;;;7.33;1.82;;;;;;;14.72;34.28;100806.45;1742132;82;21186;-78
2023/05/09 13:55:38;;;;;;;2.33;1.50;;;;;;;14.88;33.77;100808.16;1741454;82;21221;-78
2023/05/09 13:58:47;;;;;;;8.93;1.85;;;;;;;15.04;33.74;100796.90;1741158;82;21259;-78
2023/05/09 14:01:52;;;;;;;6.95;2.25;;;;;;;15.21;33.29;100798.06;1742116;82;21250;-78
2023/05/09 14:05:01;;;;;;;7.40;1.98;;;;;;;15.39;33.42;100794.34;1741908;82;21755;-78
2023/05/09 14:08:06;;;;;;;8.53;1.87;;;;;;;15.67;32.83;100793.06;1742020;82;21186;-78
2023/05/09 14:11:12;;;;;;;4.78;1.40;;;;;;;15.50;33.10;100793.80;1742061;82;21186;-78
2023/05/09 14:14:18;;;;;;;6.40;1.85;;;;;;;15.61;33.18;100796.55;1740663;82;21210;-78
2023/05/09 14:17:24;;;;;;;9.53;1.50;;;;;;;15.86;32.98;100791.53;1741990;82;21206;-78
2023/05/09 14:20:31;;;;;;;4.83;1.50;;;;;;;15.75;33.70;100791.52;1740522;82;21210;-78
2023/05/09 14:23:37;;;;;;;9.38;1.32;;;;;;;16.03;33.08;100798.97;1742053;82;21182;-78